createdAt,value
2023-05-05T00:01:06.671Z,11.10
2023-05-05T00:03:38.081Z,10.00
2023-05-05T00:06:06.628Z,10.70
2023-05-05T00:08:34.768Z,11.90
2023-05-05T00:11:02.862Z,10.90
2023-05-05T00:13:31.427Z,11.20
2023-05-05T00:16:00.426Z,9.90
2023-05-05T00:18:29.615Z,10.30
2023-05-05T00:20:57.871Z,10.90
2023-05-05T00:23:25.952Z,9.90
2023-05-05T00:25:54.022Z,9.30
2023-05-05T00:28:22.321Z,11.60
2023-05-05T00:30:50.660Z,10.30
2023-05-05T00:33:18.814Z,9.70
2023-05-05T00:35:47.850Z,8.80
2023-05-05T00:38:16.198Z,9.80
2023-05-05T00:40:44.431Z,10.00
2023-05-05T00:43:13.191Z,9.60
2023-05-05T00:45:44.349Z,9.00
2023-05-05T00:48:12.848Z,10.40
2023-05-05T00:50:44.120Z,10.80
2023-05-05T00:53:12.514Z,9.30
2023-05-05T00:55:41.736Z,8.70
2023-05-05T00:58:11.389Z,9.10
2023-05-05T01:00:39.701Z,9.60
2023-05-05T01:03:08.289Z,9.80
2023-05-05T01:05:48.657Z,9.50
2023-05-05T01:08:52.359Z,10.20
2023-05-05T01:11:32.029Z,8.80
2023-05-05T01:14:26.090Z,8.80
2023-05-05T01:17:01.504Z,9.50
2023-05-05T01:19:53.663Z,8.50
2023-05-05T01:22:27.242Z,8.00
2023-05-05T01:25:22.790Z,8.30
2023-05-05T01:28:18.914Z,9.00
2023-05-05T01:30:52.813Z,9.20
2023-05-05T01:33:27.876Z,9.20
2023-05-05T01:36:03.331Z,6.90
2023-05-05T01:38:38.115Z,8.70
2023-05-05T01:41:15.636Z,7.50
2023-05-05T01:43:47.252Z,14.30
2023-05-05T01:46:18.127Z,18.60
2023-05-05T01:48:48.482Z,13.00
2023-05-05T01:51:19.242Z,11.80
2023-05-05T01:53:48.638Z,11.90
2023-05-05T01:56:18.265Z,12.80
2023-05-05T01:58:47.342Z,11.80
2023-05-05T02:03:47.513Z,14.30
2023-05-05T02:06:19.315Z,13.70
2023-05-05T02:08:49.686Z,15.40
2023-05-05T02:11:18.051Z,14.90
2023-05-05T02:13:47.638Z,13.70
2023-05-05T02:16:18.997Z,12.50
2023-05-05T02:18:48.654Z,13.40
2023-05-05T02:21:18.251Z,12.90
2023-05-05T02:23:52.172Z,12.30
2023-05-05T02:26:22.261Z,12.00
2023-05-05T02:29:19.196Z,11.20
2023-05-05T02:31:55.318Z,10.50
2023-05-05T02:34:27.613Z,12.20
2023-05-05T02:37:03.376Z,10.60
2023-05-05T02:39:51.681Z,12.90
2023-05-05T02:42:23.347Z,11.60
2023-05-05T02:44:53.952Z,10.50
2023-05-05T02:47:22.079Z,10.30
2023-05-05T02:49:51.887Z,9.90
2023-05-05T02:52:20.080Z,11.30
2023-05-05T02:54:48.744Z,11.10
2023-05-05T02:57:21.139Z,10.70
2023-05-05T03:00:23.262Z,11.20
2023-05-05T03:03:14.238Z,10.70
2023-05-05T03:06:08.474Z,10.80
2023-05-05T03:08:50.501Z,9.80
2023-05-05T03:11:28.068Z,12.50
2023-05-05T03:14:06.993Z,12.30
2023-05-05T03:16:37.089Z,14.20
2023-05-05T03:19:08.741Z,13.10
2023-05-05T03:21:37.725Z,15.90
2023-05-05T03:24:21.385Z,12.00
2023-05-05T03:26:56.244Z,12.00
2023-05-05T03:29:26.241Z,12.90
2023-05-05T03:31:54.813Z,12.50
2023-05-05T03:34:23.201Z,12.30
2023-05-05T03:36:51.336Z,12.40
2023-05-05T03:39:19.445Z,11.30
2023-05-05T03:41:48.020Z,12.30
2023-05-05T03:44:17.008Z,12.50
2023-05-05T03:46:45.024Z,14.20
2023-05-05T03:49:14.749Z,13.20
2023-05-05T03:51:43.479Z,18.60
2023-05-05T03:54:11.859Z,15.90
2023-05-05T03:56:40.227Z,12.50
2023-05-05T03:59:08.976Z,19.00
2023-05-05T04:01:37.195Z,21.50
2023-05-05T04:04:06.236Z,22.90
2023-05-05T04:06:34.480Z,19.20
2023-05-05T04:09:03.541Z,17.50
2023-05-05T04:11:31.642Z,19.70
2023-05-05T04:14:00.073Z,25.80
2023-05-05T04:18:57.693Z,15.60
2023-05-05T04:21:25.901Z,11.40
2023-05-05T04:23:53.995Z,13.50
2023-05-05T04:26:22.452Z,15.10
2023-05-05T04:28:51.328Z,14.90
2023-05-05T04:33:48.472Z,17.10
2023-05-05T04:36:16.745Z,17.00
2023-05-05T04:38:44.943Z,15.50
2023-05-05T04:41:13.194Z,15.40
2023-05-05T04:43:42.074Z,15.40
2023-05-05T04:46:10.250Z,13.50
2023-05-05T04:48:39.446Z,14.60
2023-05-05T04:51:10.497Z,13.50
2023-05-05T04:53:39.606Z,14.20
2023-05-05T04:56:07.904Z,13.90
2023-05-05T04:58:36.251Z,16.30
2023-05-05T05:01:04.705Z,15.70
2023-05-05T05:03:32.941Z,13.80
2023-05-05T05:06:01.106Z,14.70
2023-05-05T05:08:29.492Z,13.80
2023-05-05T05:10:59.411Z,13.20
2023-05-05T05:13:27.557Z,13.30
2023-05-05T05:15:55.798Z,13.10
2023-05-05T05:18:23.801Z,15.40
2023-05-05T05:20:52.706Z,16.70
2023-05-05T05:23:20.917Z,17.80
2023-05-05T05:25:49.658Z,17.10
2023-05-05T05:28:19.043Z,20.40
2023-05-05T05:30:52.526Z,17.10
2023-05-05T05:33:21.007Z,18.70
2023-05-05T05:35:49.578Z,17.30
2023-05-05T05:38:18.878Z,17.70
2023-05-05T05:40:47.159Z,15.80
2023-05-05T05:43:15.596Z,14.60
2023-05-05T05:45:43.703Z,13.80
2023-05-05T05:48:12.295Z,13.50
2023-05-05T05:50:40.650Z,13.90
2023-05-05T05:53:08.953Z,15.30
2023-05-05T05:55:37.150Z,15.70
2023-05-05T05:58:05.460Z,14.30
2023-05-05T06:00:33.570Z,12.60
2023-05-05T06:03:04.193Z,14.70
2023-05-05T06:05:34.518Z,14.70
2023-05-05T06:08:02.642Z,14.40
2023-05-05T06:10:31.205Z,14.90
2023-05-05T06:13:06.428Z,13.10
2023-05-05T06:15:35.628Z,12.10
2023-05-05T06:18:04.993Z,13.20
2023-05-05T06:20:33.673Z,12.80
2023-05-05T06:23:01.765Z,10.30
2023-05-05T06:25:31.859Z,11.50
2023-05-05T06:28:00.230Z,9.80
2023-05-05T06:30:28.485Z,10.20
2023-05-05T06:32:56.621Z,8.90
2023-05-05T06:35:24.961Z,11.00
2023-05-05T06:37:53.685Z,10.50
2023-05-05T06:42:49.853Z,11.00
2023-05-05T06:45:22.640Z,10.50
2023-05-05T06:50:19.882Z,10.70
2023-05-05T06:52:48.046Z,11.90
2023-05-05T06:55:17.155Z,11.60
2023-05-05T06:57:45.452Z,10.40
2023-05-05T07:00:15.120Z,9.10
2023-05-05T07:02:43.481Z,9.50
2023-05-05T07:05:11.923Z,10.30
2023-05-05T07:07:51.583Z,7.70
2023-05-05T07:10:20.144Z,8.50
2023-05-05T07:12:49.047Z,7.60
2023-05-05T07:15:27.315Z,7.20
2023-05-05T07:18:00.540Z,6.30
2023-05-05T07:20:28.964Z,5.20
2023-05-05T07:22:57.233Z,6.20
2023-05-05T07:25:25.318Z,6.80
2023-05-05T07:27:53.604Z,5.90
2023-05-05T07:32:50.198Z,5.40
2023-05-05T07:40:14.688Z,5.20
2023-05-05T07:47:40.746Z,4.30
2023-05-05T07:50:09.978Z,2.40
2023-05-05T07:52:48.452Z,3.40
2023-05-05T07:55:20.041Z,2.20
2023-05-05T07:57:49.815Z,2.70
2023-05-05T08:00:19.599Z,2.40
2023-05-05T08:02:48.221Z,3.00
2023-05-05T08:05:16.894Z,2.60
2023-05-05T08:07:45.329Z,2.90
2023-05-05T08:12:41.707Z,2.70
2023-05-05T08:15:10.853Z,2.70
2023-05-05T08:17:47.739Z,2.50
2023-05-05T08:20:17.093Z,3.20
2023-05-05T08:22:46.215Z,2.70
2023-05-05T08:25:14.492Z,2.40
2023-05-05T08:30:12.235Z,2.30
2023-05-05T08:32:40.780Z,2.30
2023-05-05T08:35:09.690Z,2.80
2023-05-05T08:37:38.329Z,2.50
2023-05-05T08:42:38.732Z,3.10
2023-05-05T08:45:09.929Z,2.30
2023-05-05T08:47:39.689Z,3.00
2023-05-05T08:50:11.052Z,2.70
2023-05-05T08:52:45.180Z,2.40
2023-05-05T08:55:27.480Z,2.30
2023-05-05T08:57:57.515Z,2.60
2023-05-05T09:00:27.429Z,1.90
2023-05-05T09:03:00.133Z,2.20
2023-05-05T09:05:28.867Z,2.00
2023-05-05T09:10:26.267Z,2.10
2023-05-05T09:12:54.579Z,2.00
2023-05-05T09:20:19.964Z,1.50
2023-05-05T09:22:48.635Z,2.00
2023-05-05T09:27:48.727Z,1.70
2023-05-05T09:30:23.392Z,2.00
2023-05-05T09:32:54.686Z,2.20
2023-05-05T09:35:23.714Z,2.50
2023-05-05T09:37:51.835Z,2.50
2023-05-05T09:40:22.025Z,2.30
2023-05-05T09:43:02.016Z,2.30
2023-05-05T09:45:30.282Z,2.50
2023-05-05T09:48:00.320Z,2.60
2023-05-05T09:50:31.084Z,2.60
2023-05-05T09:53:02.275Z,2.90
2023-05-05T09:55:33.830Z,2.10
2023-05-05T09:58:23.947Z,2.20
2023-05-05T10:00:53.387Z,2.30
2023-05-05T10:03:21.814Z,2.70
2023-05-05T10:05:54.456Z,3.00
2023-05-05T10:08:26.175Z,3.40
2023-05-05T10:10:57.006Z,3.00
2023-05-05T10:13:25.600Z,2.70
2023-05-05T10:15:56.856Z,2.40
2023-05-05T10:18:27.569Z,3.10
2023-05-05T10:21:01.389Z,2.40
2023-05-05T10:23:46.087Z,3.10
2023-05-05T10:26:15.758Z,2.80
2023-05-05T10:29:01.843Z,2.90
2023-05-05T10:31:41.374Z,3.80
2023-05-05T10:34:13.445Z,3.40
2023-05-05T10:36:41.972Z,2.60
2023-05-05T10:39:12.008Z,2.90
2023-05-05T10:41:41.150Z,4.20
2023-05-05T10:44:11.216Z,3.30
2023-05-05T10:46:40.931Z,3.80
2023-05-05T10:49:49.407Z,3.50
2023-05-05T10:52:37.489Z,3.50
2023-05-05T10:55:15.559Z,3.20
2023-05-05T10:57:47.688Z,3.00
2023-05-05T11:00:38.874Z,3.60
2023-05-05T11:03:26.627Z,3.20
2023-05-05T11:06:04.401Z,3.70
2023-05-05T11:08:43.321Z,4.10
2023-05-05T11:11:13.078Z,4.10
2023-05-05T11:13:42.138Z,4.00
2023-05-05T11:16:48.234Z,3.60
2023-05-05T11:19:45.440Z,3.30
2023-05-05T11:22:14.530Z,3.80
2023-05-05T11:24:42.809Z,4.10
2023-05-05T11:27:11.692Z,3.20
2023-05-05T11:30:04.686Z,3.60
2023-05-05T11:32:33.933Z,4.10
2023-05-05T11:35:03.077Z,4.00
2023-05-05T11:37:31.340Z,3.90
2023-05-05T11:39:59.510Z,4.40
2023-05-05T11:42:28.623Z,3.90
2023-05-05T11:44:56.868Z,3.30
2023-05-05T11:47:27.147Z,3.40
2023-05-05T11:49:56.216Z,3.40
2023-05-05T11:52:26.141Z,3.60
2023-05-05T11:55:01.711Z,3.40
2023-05-05T11:57:30.631Z,3.90
2023-05-05T12:00:05.428Z,4.00
2023-05-05T12:02:34.124Z,3.50
2023-05-05T12:05:03.168Z,4.00
2023-05-05T12:07:33.487Z,3.80
2023-05-05T12:10:02.923Z,3.70
2023-05-05T12:12:37.284Z,3.00
2023-05-05T12:15:06.750Z,3.50
2023-05-05T12:17:41.052Z,4.00
2023-05-05T12:20:11.160Z,3.60
2023-05-05T12:22:39.926Z,4.20
2023-05-05T12:25:09.115Z,3.60
2023-05-05T12:27:37.545Z,3.40
2023-05-05T12:30:18.750Z,3.80
2023-05-05T12:32:47.332Z,4.00
2023-05-05T12:35:16.221Z,3.50
2023-05-05T12:37:44.933Z,4.00
2023-05-05T12:40:45.350Z,3.90
2023-05-05T12:43:26.664Z,4.20
2023-05-05T12:46:00.829Z,3.90
2023-05-05T12:48:29.318Z,3.30
2023-05-05T12:51:18.812Z,3.30
2023-05-05T12:53:48.650Z,2.80
2023-05-05T12:56:49.480Z,3.60
2023-05-05T12:59:23.476Z,3.90
2023-05-05T13:01:56.350Z,3.20
2023-05-05T13:04:27.080Z,4.30
2023-05-05T13:07:15.412Z,3.50
2023-05-05T13:09:44.060Z,3.50
2023-05-05T13:12:12.540Z,3.80
2023-05-05T13:14:42.069Z,4.70
2023-05-05T13:17:11.658Z,2.90
2023-05-05T13:19:46.652Z,3.40
2023-05-05T13:22:14.922Z,4.30
2023-05-05T13:24:51.649Z,4.20
2023-05-05T13:27:21.009Z,4.10
2023-05-05T13:29:49.270Z,3.50
2023-05-05T13:32:17.398Z,2.80
2023-05-05T13:34:45.752Z,3.30
2023-05-05T13:37:14.409Z,3.70
2023-05-05T13:39:43.505Z,4.20
2023-05-05T13:42:11.788Z,3.40
2023-05-05T13:44:39.960Z,3.60
2023-05-05T13:47:08.815Z,3.30
2023-05-05T13:49:37.081Z,3.60
2023-05-05T13:52:06.113Z,3.80
2023-05-05T13:54:34.166Z,2.50
2023-05-05T13:57:03.404Z,2.90
2023-05-05T13:59:31.766Z,3.00
2023-05-05T14:02:01.062Z,3.00
2023-05-05T14:04:29.288Z,3.50
2023-05-05T14:06:58.572Z,2.80
2023-05-05T14:09:27.018Z,2.90
2023-05-05T14:11:55.338Z,2.90
2023-05-05T14:14:23.482Z,2.60
2023-05-05T14:16:51.664Z,2.60
2023-05-05T14:19:19.812Z,3.00
2023-05-05T14:21:47.871Z,3.10
2023-05-05T14:24:15.959Z,2.90
2023-05-05T14:26:44.226Z,2.50
2023-05-05T14:29:12.247Z,3.20
2023-05-05T14:31:40.874Z,3.20
2023-05-05T14:34:09.169Z,2.80
2023-05-05T14:36:37.440Z,3.40
2023-05-05T14:39:05.653Z,3.80
2023-05-05T14:41:33.924Z,2.80
2023-05-05T14:44:01.959Z,3.60
2023-05-05T14:46:31.480Z,3.70
2023-05-05T14:49:00.006Z,2.90
2023-05-05T14:51:28.326Z,3.00
2023-05-05T14:53:56.611Z,2.80
2023-05-05T14:56:28.371Z,3.20
2023-05-05T14:58:56.381Z,2.90
2023-05-05T15:01:27.663Z,3.80
2023-05-05T15:03:56.340Z,2.60
2023-05-05T15:06:24.516Z,3.00
2023-05-05T15:08:52.496Z,3.00
2023-05-05T15:11:20.587Z,2.90
2023-05-05T15:13:48.783Z,3.90
2023-05-05T15:16:17.191Z,2.50
2023-05-05T15:18:45.603Z,3.10
2023-05-05T15:21:13.884Z,2.60
2023-05-05T15:23:42.311Z,2.40
2023-05-05T15:26:10.416Z,3.00
2023-05-05T15:28:38.494Z,3.60
2023-05-05T15:31:06.801Z,3.50
2023-05-05T15:33:34.983Z,3.00
2023-05-05T15:36:03.328Z,2.90
2023-05-05T15:38:31.622Z,3.20
2023-05-05T15:41:00.204Z,3.10
2023-05-05T15:43:28.311Z,2.60
2023-05-05T15:45:56.396Z,2.50
2023-05-05T15:48:24.405Z,2.90
2023-05-05T15:50:52.445Z,2.60
2023-05-05T15:53:20.759Z,3.30
2023-05-05T15:55:48.805Z,3.50
2023-05-05T15:58:16.908Z,3.60
2023-05-05T16:00:45.157Z,2.80
2023-05-05T16:03:13.504Z,3.70
2023-05-05T16:05:41.861Z,2.40
2023-05-05T16:08:11.135Z,3.20
2023-05-05T16:10:39.485Z,3.00
2023-05-05T16:13:08.004Z,2.70
2023-05-05T16:15:36.521Z,2.80
2023-05-05T16:18:05.245Z,2.60
2023-05-05T16:20:33.410Z,2.80
2023-05-05T16:23:01.430Z,3.20
2023-05-05T16:25:29.444Z,3.00
2023-05-05T16:27:57.737Z,2.70
2023-05-05T16:30:26.151Z,2.90
2023-05-05T16:32:54.861Z,2.70
2023-05-05T16:37:52.618Z,3.50
2023-05-05T16:40:20.755Z,2.10
2023-05-05T16:42:49.126Z,2.80
2023-05-05T16:45:17.217Z,2.80
2023-05-05T16:47:45.659Z,3.20
2023-05-05T16:50:13.741Z,3.10
2023-05-05T16:52:42.238Z,2.60
2023-05-05T16:55:10.548Z,3.20
2023-05-05T16:57:39.513Z,2.70
2023-05-05T17:00:09.391Z,2.90
2023-05-05T17:02:37.745Z,3.40
2023-05-05T17:05:06.599Z,3.10
2023-05-05T17:07:34.766Z,3.20
2023-05-05T17:10:02.839Z,3.70
2023-05-05T17:12:31.235Z,2.70
2023-05-05T17:15:00.000Z,3.40
2023-05-05T17:17:28.469Z,3.40
2023-05-05T17:19:56.759Z,2.60
2023-05-05T17:22:24.900Z,2.90
2023-05-05T17:24:53.211Z,3.10
2023-05-05T17:27:21.314Z,4.10
2023-05-05T17:29:49.453Z,3.50
2023-05-05T17:32:17.730Z,2.80
2023-05-05T17:34:46.036Z,3.10
2023-05-05T17:37:14.234Z,2.90
2023-05-05T17:39:42.424Z,3.50
2023-05-05T17:42:11.041Z,2.50
2023-05-05T17:44:39.081Z,3.40
2023-05-05T17:47:07.996Z,3.30
2023-05-05T17:49:36.146Z,2.80
2023-05-05T17:52:04.670Z,3.40
2023-05-05T17:54:32.989Z,3.00
2023-05-05T17:57:01.559Z,3.80
2023-05-05T17:59:31.501Z,4.00
2023-05-05T18:01:59.780Z,3.90
2023-05-05T18:04:27.908Z,2.70
2023-05-05T18:06:57.543Z,3.20
2023-05-05T18:09:27.008Z,3.90
2023-05-05T18:11:55.593Z,5.00
2023-05-05T18:14:24.073Z,5.10
2023-05-05T18:16:53.118Z,5.70
2023-05-05T18:21:53.037Z,4.50
2023-05-05T18:24:21.258Z,5.80
2023-05-05T18:26:51.467Z,4.90
2023-05-05T18:29:24.663Z,5.30
2023-05-05T18:31:54.927Z,5.40
2023-05-05T18:34:23.366Z,5.80
2023-05-05T18:36:54.351Z,6.50
2023-05-05T18:39:22.888Z,5.30
2023-05-05T18:41:51.056Z,5.60
2023-05-05T18:44:20.260Z,4.40
2023-05-05T18:49:16.756Z,6.10
2023-05-05T18:51:45.120Z,6.00
2023-05-05T18:54:13.210Z,7.30
2023-05-05T18:56:42.413Z,7.00
2023-05-05T19:01:38.585Z,7.20
2023-05-05T19:04:15.565Z,10.90
2023-05-05T19:06:52.547Z,8.70
2023-05-05T19:09:20.950Z,8.30
2023-05-05T19:11:49.085Z,9.90
2023-05-05T19:14:18.080Z,8.00
2023-05-05T19:16:46.550Z,8.40
2023-05-05T19:19:14.739Z,9.60
2023-05-05T19:21:43.305Z,11.10
2023-05-05T19:24:11.831Z,11.10
2023-05-05T19:26:40.304Z,11.10
2023-05-05T19:29:08.673Z,14.60
2023-05-05T19:31:36.843Z,15.90
2023-05-05T19:34:05.341Z,15.60
2023-05-05T19:36:34.757Z,12.00
2023-05-05T19:39:04.602Z,12.10
2023-05-05T19:41:35.431Z,10.20
2023-05-05T19:44:04.179Z,10.90
2023-05-05T19:46:32.645Z,11.00
2023-05-05T19:49:01.434Z,13.30
2023-05-05T19:51:29.601Z,11.30
2023-05-05T19:53:59.614Z,10.70
2023-05-05T19:56:27.667Z,12.30
2023-05-05T19:58:59.000Z,13.40
2023-05-05T20:01:28.774Z,11.00
2023-05-05T20:03:57.518Z,10.80
2023-05-05T20:06:27.137Z,12.50
2023-05-05T20:08:55.793Z,13.20
2023-05-05T20:11:26.040Z,13.10
2023-05-05T20:13:54.306Z,13.00
2023-05-05T20:16:22.509Z,12.40
2023-05-05T20:18:51.694Z,13.30
2023-05-05T20:21:20.177Z,11.80
2023-05-05T20:23:48.557Z,12.80
2023-05-05T20:26:17.181Z,13.60
2023-05-05T20:28:45.959Z,13.00
2023-05-05T20:31:14.966Z,14.30
2023-05-05T20:33:43.294Z,12.60
2023-05-05T20:36:11.741Z,13.00
2023-05-05T20:38:39.947Z,14.80
2023-05-05T20:41:08.307Z,13.80
2023-05-05T20:43:37.444Z,14.40
2023-05-05T20:46:06.019Z,13.70
2023-05-05T20:48:34.045Z,14.30
2023-05-05T20:51:06.666Z,12.60
2023-05-05T20:53:35.366Z,13.60
2023-05-05T20:56:05.724Z,12.20
2023-05-05T20:58:34.561Z,12.40
2023-05-05T21:01:02.961Z,12.20
2023-05-05T21:03:31.225Z,12.80
2023-05-05T21:05:59.373Z,13.90
2023-05-05T21:08:27.542Z,16.80
2023-05-05T21:10:55.726Z,15.80
2023-05-05T21:13:24.354Z,18.30
2023-05-05T21:15:52.474Z,17.20
2023-05-05T21:18:20.948Z,20.30
2023-05-05T21:20:49.332Z,21.40
2023-05-05T21:23:17.408Z,21.90
2023-05-05T21:25:45.663Z,19.20
2023-05-05T21:28:13.949Z,21.10
2023-05-05T21:30:42.343Z,17.40
2023-05-05T21:33:10.467Z,17.70
2023-05-05T21:35:38.886Z,18.60
2023-05-05T21:38:07.160Z,18.40
2023-05-05T21:40:35.222Z,16.30
2023-05-05T21:43:03.268Z,18.60
2023-05-05T21:45:31.377Z,19.20
2023-05-05T21:47:59.607Z,20.50
2023-05-05T21:50:29.531Z,20.70
2023-05-05T21:52:57.815Z,17.60
2023-05-05T21:55:26.008Z,18.40
2023-05-05T21:57:54.383Z,17.00
2023-05-05T22:00:22.808Z,17.60
2023-05-05T22:02:51.211Z,17.00
2023-05-05T22:05:19.534Z,14.10
2023-05-05T22:07:47.768Z,13.90
2023-05-05T22:10:16.717Z,13.50
2023-05-05T22:12:44.929Z,12.30
2023-05-05T22:15:13.075Z,14.10
2023-05-05T22:17:41.234Z,13.80
2023-05-05T22:20:10.300Z,13.30
2023-05-05T22:22:38.949Z,13.90
2023-05-05T22:25:07.905Z,14.40
2023-05-05T22:30:04.948Z,12.70
2023-05-05T22:32:33.163Z,14.00
2023-05-05T22:35:01.493Z,14.50
2023-05-05T22:37:29.641Z,14.20
2023-05-05T22:39:57.651Z,13.30
2023-05-05T22:42:25.902Z,13.00
2023-05-05T22:44:54.483Z,14.20
2023-05-05T22:47:22.583Z,15.00
2023-05-05T22:49:51.046Z,14.10
2023-05-05T22:52:19.109Z,14.60
2023-05-05T22:54:47.259Z,15.10
2023-05-05T22:57:15.330Z,13.80
2023-05-05T22:59:43.797Z,14.00
2023-05-05T23:02:12.319Z,14.10
2023-05-05T23:04:40.725Z,15.80
2023-05-05T23:07:09.041Z,15.30
2023-05-05T23:09:37.076Z,15.20
2023-05-05T23:12:05.514Z,15.50
2023-05-05T23:14:33.868Z,14.10
2023-05-05T23:17:02.012Z,12.50
2023-05-05T23:19:32.502Z,14.50
2023-05-05T23:22:01.997Z,12.10
2023-05-05T23:24:31.020Z,15.20
2023-05-05T23:29:30.614Z,19.00
2023-05-05T23:31:59.061Z,19.10
2023-05-05T23:34:27.471Z,19.30
2023-05-05T23:36:56.050Z,17.80
2023-05-05T23:39:24.338Z,15.80
2023-05-05T23:41:53.035Z,15.30
2023-05-05T23:44:21.389Z,16.00
2023-05-05T23:46:49.681Z,14.40
2023-05-05T23:49:17.707Z,13.40
2023-05-05T23:51:46.135Z,15.40
2023-05-05T23:54:14.475Z,13.70
2023-05-05T23:56:42.828Z,14.00
2023-05-05T23:59:10.937Z,14.60
